SBOSBO PHX / KPHX
Speedbird OnlineSpeedbird Online PHX / KPHX

Phoenix Sky Harbor International Airport
12:14 35.8°C

Location Phoenix, United States
Latitude: 33.43429946899414
Longitude: -112.01200103759766
Web Airport Website | Wikipedia
Altitude 346 Meter / 1135 Feet
Distance 8,492 KM / 5,277 Miles
from London.
Time Zone UTC -7 hours (America/Phoenix)
Codes IATA: PHX
ICAO: KPHX
Currency £1 equals USD 1.09
Runways
RunwayLength (m)Surface
07L3139Asphalt
07R2377Concrete
083502Concrete
25L2377Concrete
25R3139Asphalt
263502Concrete
Radio
TypeDescriptionFrequency
A/DAPP/DEP124.1
ATISATIS127.575
CLDCLNC DEL118.1
GNDGND119.75
POSTANG COMD POST140
RDOPRESCOTT RDO122.2
TWRTWR118.7
UNICUNICOM122.95
Live ATC
METAR KPHX 241851Z 00000KT 10SM FEW100 FEW250 35/13 A2997 RMK AO2 SLP127 T03500133
TAF KPHX 241720Z 2418/2524 11005KT P6SM FEW250 FM242100 27007KT P6SM FEW120 FEW250 FM250900 10005KT P6SM FEW250 FM251900 26007KT P6SM FEW250
Weather As Of 24 Sep 2022 12:14
Description Few clouds
Wind 3 km/h from North-East (34°)
Cloud Cover 20%
Precipitation Rain: none, Snow: none
Sunrise 06:17
Sunset 18:22
Lounges Escape Lounge , Terminal 4
American Airlines Admirals Club, Terminal 4
American Airlines Admirals Club, Terminal 4
American Airlines Admirals Club, Terminal 4
Rotations During the last 90 days there were
87 flights from LHR
87 flights to LHR
1 flights to LAS


© 2017-2022 Speedbird Online